sensor_id;sensor_type;location;lat;lon;timestamp;temperature;humidity
74822;DHT22;63353;48.702;8.884;2023-06-22T00:00:32;18.30;99.90
74822;DHT22;63353;48.702;8.884;2023-06-22T00:02:57;18.20;99.90
74822;DHT22;63353;48.702;8.884;2023-06-22T00:05:23;18.20;99.90
74822;DHT22;63353;48.702;8.884;2023-06-22T00:07:52;18.20;99.90
74822;DHT22;63353;48.702;8.884;2023-06-22T00:10:23;18.20;99.90
74822;DHT22;63353;48.702;8.884;2023-06-22T00:12:49;18.10;99.90
74822;DHT22;63353;48.702;8.884;2023-06-22T00:15:15;18.10;99.90
74822;DHT22;63353;48.702;8.884;2023-06-22T00:17:40;18.00;99.90
74822;DHT22;63353;48.702;8.884;2023-06-22T00:20:07;18.00;99.90
74822;DHT22;63353;48.702;8.884;2023-06-22T00:22:37;17.90;99.90
74822;DHT22;63353;48.702;8.884;2023-06-22T00:25:07;17.90;99.90
74822;DHT22;63353;48.702;8.884;2023-06-22T00:27:36;17.90;99.90
74822;DHT22;63353;48.702;8.884;2023-06-22T00:30:03;17.90;99.90
74822;DHT22;63353;48.702;8.884;2023-06-22T00:32:29;17.90;99.90
74822;DHT22;63353;48.702;8.884;2023-06-22T00:34:57;17.80;99.90
74822;DHT22;63353;48.702;8.884;2023-06-22T00:37:32;17.80;99.90
74822;DHT22;63353;48.702;8.884;2023-06-22T00:39:57;17.80;99.90
74822;DHT22;63353;48.702;8.884;2023-06-22T00:42:24;17.80;99.90
74822;DHT22;63353;48.702;8.884;2023-06-22T00:44:59;17.80;99.90
74822;DHT22;63353;48.702;8.884;2023-06-22T00:47:26;17.90;99.90
74822;DHT22;63353;48.702;8.884;2023-06-22T00:49:52;17.90;99.90
74822;DHT22;63353;48.702;8.884;2023-06-22T00:52:20;17.80;99.90
74822;DHT22;63353;48.702;8.884;2023-06-22T00:54:53;17.70;99.90
74822;DHT22;63353;48.702;8.884;2023-06-22T00:57:24;17.60;99.90
74822;DHT22;63353;48.702;8.884;2023-06-22T00:59:53;17.50;99.90
74822;DHT22;63353;48.702;8.884;2023-06-22T01:02:25;17.50;99.90
74822;DHT22;63353;48.702;8.884;2023-06-22T01:04:51;17.40;99.90
74822;DHT22;63353;48.702;8.884;2023-06-22T01:07:36;17.30;99.90
74822;DHT22;63353;48.702;8.884;2023-06-22T01:10:08;17.30;99.90
74822;DHT22;63353;48.702;8.884;2023-06-22T01:12:42;17.30;99.90
74822;DHT22;63353;48.702;8.884;2023-06-22T01:15:25;17.30;99.90
74822;DHT22;63353;48.702;8.884;2023-06-22T01:18:12;17.30;99.90
74822;DHT22;63353;48.702;8.884;2023-06-22T01:20:39;17.20;99.90
74822;DHT22;63353;48.702;8.884;2023-06-22T01:28:47;17.10;99.90
74822;DHT22;63353;48.702;8.884;2023-06-22T01:31:16;17.10;99.90
74822;DHT22;63353;48.702;8.884;2023-06-22T01:33:50;17.10;99.90
74822;DHT22;63353;48.702;8.884;2023-06-22T01:36:19;17.00;99.90
74822;DHT22;63353;48.702;8.884;2023-06-22T01:38:49;17.00;99.90
74822;DHT22;63353;48.702;8.884;2023-06-22T01:41:20;17.00;99.90
74822;DHT22;63353;48.702;8.884;2023-06-22T01:43:47;16.90;99.90
74822;DHT22;63353;48.702;8.884;2023-06-22T01:46:17;17.00;99.90
74822;DHT22;63353;48.702;8.884;2023-06-22T01:48:50;17.00;99.90
74822;DHT22;63353;48.702;8.884;2023-06-22T01:51:16;17.00;99.90
74822;DHT22;63353;48.702;8.884;2023-06-22T01:53:42;16.90;99.90
74822;DHT22;63353;48.702;8.884;2023-06-22T01:56:11;16.80;99.90
74822;DHT22;63353;48.702;8.884;2023-06-22T01:58:43;16.80;99.90
74822;DHT22;63353;48.702;8.884;2023-06-22T02:01:12;16.70;99.90
74822;DHT22;63353;48.702;8.884;2023-06-22T02:03:59;16.70;99.90
74822;DHT22;63353;48.702;8.884;2023-06-22T02:06:34;16.70;99.90
74822;DHT22;63353;48.702;8.884;2023-06-22T02:09:08;16.80;99.90
74822;DHT22;63353;48.702;8.884;2023-06-22T02:11:36;16.70;99.90
74822;DHT22;63353;48.702;8.884;2023-06-22T02:14:02;16.70;99.90
74822;DHT22;63353;48.702;8.884;2023-06-22T02:16:31;16.70;99.90
74822;DHT22;63353;48.702;8.884;2023-06-22T02:19:01;16.70;99.90
74822;DHT22;63353;48.702;8.884;2023-06-22T02:21:47;16.70;99.90
74822;DHT22;63353;48.702;8.884;2023-06-22T02:24:19;16.60;99.90
74822;DHT22;63353;48.702;8.884;2023-06-22T02:26:49;16.50;99.90
74822;DHT22;63353;48.702;8.884;2023-06-22T02:29:21;16.50;99.90
74822;DHT22;63353;48.702;8.884;2023-06-22T02:31:46;16.40;99.90
74822;DHT22;63353;48.702;8.884;2023-06-22T02:34:22;16.30;99.90
74822;DHT22;63353;48.702;8.884;2023-06-22T02:36:48;16.30;99.90
74822;DHT22;63353;48.702;8.884;2023-06-22T02:39:33;16.20;99.90
74822;DHT22;63353;48.702;8.884;2023-06-22T02:42:02;16.30;99.90
74822;DHT22;63353;48.702;8.884;2023-06-22T02:44:27;16.30;99.90
74822;DHT22;63353;48.702;8.884;2023-06-22T02:46:59;16.30;99.90
74822;DHT22;63353;48.702;8.884;2023-06-22T02:49:24;16.30;99.90
74822;DHT22;63353;48.702;8.884;2023-06-22T02:51:57;16.30;99.90
74822;DHT22;63353;48.702;8.884;2023-06-22T02:54:25;16.30;99.90
74822;DHT22;63353;48.702;8.884;2023-06-22T02:56:54;16.30;99.90
74822;DHT22;63353;48.702;8.884;2023-06-22T02:59:20;16.30;99.90
74822;DHT22;63353;48.702;8.884;2023-06-22T03:01:52;16.30;99.90
74822;DHT22;63353;48.702;8.884;2023-06-22T03:04:24;16.30;99.90
74822;DHT22;63353;48.702;8.884;2023-06-22T03:06:53;16.20;99.90
74822;DHT22;63353;48.702;8.884;2023-06-22T03:09:19;16.20;99.90
74822;DHT22;63353;48.702;8.884;2023-06-22T03:11:47;16.10;99.90
74822;DHT22;63353;48.702;8.884;2023-06-22T03:14:13;16.20;99.90
74822;DHT22;63353;48.702;8.884;2023-06-22T03:16:38;16.10;99.90
74822;DHT22;63353;48.702;8.884;2023-06-22T03:19:05;16.10;99.90
74822;DHT22;63353;48.702;8.884;2023-06-22T03:21:31;16.00;99.90
74822;DHT22;63353;48.702;8.884;2023-06-22T03:24:07;16.00;99.90
74822;DHT22;63353;48.702;8.884;2023-06-22T03:26:33;15.90;99.90
74822;DHT22;63353;48.702;8.884;2023-06-22T03:29:02;16.00;99.90
74822;DHT22;63353;48.702;8.884;2023-06-22T03:31:28;16.00;99.90
74822;DHT22;63353;48.702;8.884;2023-06-22T03:34:00;16.00;99.90
74822;DHT22;63353;48.702;8.884;2023-06-22T03:36:28;16.00;99.90
74822;DHT22;63353;48.702;8.884;2023-06-22T03:39:03;16.00;99.90
74822;DHT22;63353;48.702;8.884;2023-06-22T03:41:29;16.00;99.90
74822;DHT22;63353;48.702;8.884;2023-06-22T03:43:54;16.00;99.90
74822;DHT22;63353;48.702;8.884;2023-06-22T03:46:20;16.10;99.90
74822;DHT22;63353;48.702;8.884;2023-06-22T03:48:46;16.10;99.90
74822;DHT22;63353;48.702;8.884;2023-06-22T03:51:12;16.10;99.90
74822;DHT22;63353;48.702;8.884;2023-06-22T03:53:37;16.10;99.90
74822;DHT22;63353;48.702;8.884;2023-06-22T03:56:03;16.00;99.90
74822;DHT22;63353;48.702;8.884;2023-06-22T03:58:29;16.10;99.90
74822;DHT22;63353;48.702;8.884;2023-06-22T04:00:58;16.10;99.90
74822;DHT22;63353;48.702;8.884;2023-06-22T04:03:25;16.20;99.90
74822;DHT22;63353;48.702;8.884;2023-06-22T04:05:51;16.20;99.90
74822;DHT22;63353;48.702;8.884;2023-06-22T04:08:17;16.30;99.90
74822;DHT22;63353;48.702;8.884;2023-06-22T04:10:43;16.30;99.90
74822;DHT22;63353;48.702;8.884;2023-06-22T04:13:09;16.40;99.90
74822;DHT22;63353;48.702;8.884;2023-06-22T04:15:34;16.40;99.90
74822;DHT22;63353;48.702;8.884;2023-06-22T04:18:00;16.50;99.90
74822;DHT22;63353;48.702;8.884;2023-06-22T04:20:26;16.50;99.90
74822;DHT22;63353;48.702;8.884;2023-06-22T04:22:53;16.70;99.90
74822;DHT22;63353;48.702;8.884;2023-06-22T04:25:22;16.70;99.90
74822;DHT22;63353;48.702;8.884;2023-06-22T04:27:48;16.80;99.90
74822;DHT22;63353;48.702;8.884;2023-06-22T04:30:17;16.90;99.90
74822;DHT22;63353;48.702;8.884;2023-06-22T04:32:44;16.90;99.90
74822;DHT22;63353;48.702;8.884;2023-06-22T04:35:11;17.00;99.90
74822;DHT22;63353;48.702;8.884;2023-06-22T04:37:40;17.00;99.90
74822;DHT22;63353;48.702;8.884;2023-06-22T04:40:06;17.10;99.90
74822;DHT22;63353;48.702;8.884;2023-06-22T04:42:34;17.20;99.90
74822;DHT22;63353;48.702;8.884;2023-06-22T04:45:01;17.30;99.90
74822;DHT22;63353;48.702;8.884;2023-06-22T04:47:26;17.40;99.90
74822;DHT22;63353;48.702;8.884;2023-06-22T04:49:52;17.50;99.90
74822;DHT22;63353;48.702;8.884;2023-06-22T04:52:18;17.60;99.90
74822;DHT22;63353;48.702;8.884;2023-06-22T04:54:45;17.70;99.90
74822;DHT22;63353;48.702;8.884;2023-06-22T04:57:21;17.80;99.90
74822;DHT22;63353;48.702;8.884;2023-06-22T04:59:58;18.00;99.90
74822;DHT22;63353;48.702;8.884;2023-06-22T05:02:41;18.10;99.90
74822;DHT22;63353;48.702;8.884;2023-06-22T05:05:07;18.30;99.90
74822;DHT22;63353;48.702;8.884;2023-06-22T05:07:34;18.40;99.90
74822;DHT22;63353;48.702;8.884;2023-06-22T05:10:04;18.50;99.90
74822;DHT22;63353;48.702;8.884;2023-06-22T05:12:30;18.60;99.90
74822;DHT22;63353;48.702;8.884;2023-06-22T05:14:56;18.80;99.90
74822;DHT22;63353;48.702;8.884;2023-06-22T05:17:22;18.90;99.90
74822;DHT22;63353;48.702;8.884;2023-06-22T05:19:48;19.00;99.90
74822;DHT22;63353;48.702;8.884;2023-06-22T05:22:17;19.10;99.90
74822;DHT22;63353;48.702;8.884;2023-06-22T05:24:43;19.20;99.90
74822;DHT22;63353;48.702;8.884;2023-06-22T05:27:09;19.30;99.90
74822;DHT22;63353;48.702;8.884;2023-06-22T05:29:36;19.40;99.90
74822;DHT22;63353;48.702;8.884;2023-06-22T05:32:03;19.50;99.90
74822;DHT22;63353;48.702;8.884;2023-06-22T05:34:29;19.60;99.90
74822;DHT22;63353;48.702;8.884;2023-06-22T05:36:54;19.70;99.90
74822;DHT22;63353;48.702;8.884;2023-06-22T05:39:20;19.70;99.90
74822;DHT22;63353;48.702;8.884;2023-06-22T05:41:46;19.80;99.90
74822;DHT22;63353;48.702;8.884;2023-06-22T05:44:12;19.90;99.90
74822;DHT22;63353;48.702;8.884;2023-06-22T05:46:42;19.90;99.90
74822;DHT22;63353;48.702;8.884;2023-06-22T05:49:12;19.90;99.90
74822;DHT22;63353;48.702;8.884;2023-06-22T05:51:38;20.00;99.90
74822;DHT22;63353;48.702;8.884;2023-06-22T05:54:04;20.10;99.90
74822;DHT22;63353;48.702;8.884;2023-06-22T05:56:30;20.20;99.90
74822;DHT22;63353;48.702;8.884;2023-06-22T05:58:56;20.20;99.90
74822;DHT22;63353;48.702;8.884;2023-06-22T06:01:21;20.40;99.90
74822;DHT22;63353;48.702;8.884;2023-06-22T06:03:47;20.50;99.90
74822;DHT22;63353;48.702;8.884;2023-06-22T06:06:15;20.60;99.90
74822;DHT22;63353;48.702;8.884;2023-06-22T06:08:41;20.70;99.90
74822;DHT22;63353;48.702;8.884;2023-06-22T06:11:06;20.90;99.90
74822;DHT22;63353;48.702;8.884;2023-06-22T06:13:32;21.10;99.90
74822;DHT22;63353;48.702;8.884;2023-06-22T06:15:58;21.20;99.90
74822;DHT22;63353;48.702;8.884;2023-06-22T06:18:24;21.40;99.90
74822;DHT22;63353;48.702;8.884;2023-06-22T06:20:50;21.60;99.90
74822;DHT22;63353;48.702;8.884;2023-06-22T06:23:16;21.80;99.90
74822;DHT22;63353;48.702;8.884;2023-06-22T06:25:42;21.90;99.90
74822;DHT22;63353;48.702;8.884;2023-06-22T06:28:07;22.00;99.90
74822;DHT22;63353;48.702;8.884;2023-06-22T06:30:33;22.10;99.90
74822;DHT22;63353;48.702;8.884;2023-06-22T06:33:00;22.30;99.90
74822;DHT22;63353;48.702;8.884;2023-06-22T06:35:26;22.50;99.90
74822;DHT22;63353;48.702;8.884;2023-06-22T06:37:51;22.50;99.90
74822;DHT22;63353;48.702;8.884;2023-06-22T06:40:18;22.70;99.90
74822;DHT22;63353;48.702;8.884;2023-06-22T06:42:45;22.80;99.90
74822;DHT22;63353;48.702;8.884;2023-06-22T06:45:18;22.90;99.90
74822;DHT22;63353;48.702;8.884;2023-06-22T06:47:44;23.00;99.90
74822;DHT22;63353;48.702;8.884;2023-06-22T06:50:11;23.00;99.90
74822;DHT22;63353;48.702;8.884;2023-06-22T06:52:37;23.20;99.90
74822;DHT22;63353;48.702;8.884;2023-06-22T06:55:03;23.30;99.90
74822;DHT22;63353;48.702;8.884;2023-06-22T06:57:36;23.50;99.90
74822;DHT22;63353;48.702;8.884;2023-06-22T07:00:29;23.70;99.90
74822;DHT22;63353;48.702;8.884;2023-06-22T07:03:00;23.90;99.90
74822;DHT22;63353;48.702;8.884;2023-06-22T07:05:26;24.00;99.90
74822;DHT22;63353;48.702;8.884;2023-06-22T07:08:01;24.30;99.90
74822;DHT22;63353;48.702;8.884;2023-06-22T07:10:36;24.50;99.90
74822;DHT22;63353;48.702;8.884;2023-06-22T07:13:10;24.70;99.90
74822;DHT22;63353;48.702;8.884;2023-06-22T07:15:36;24.90;99.90
74822;DHT22;63353;48.702;8.884;2023-06-22T07:18:02;25.10;99.90
74822;DHT22;63353;48.702;8.884;2023-06-22T07:20:27;25.20;99.90
74822;DHT22;63353;48.702;8.884;2023-06-22T07:22:53;25.30;99.90
74822;DHT22;63353;48.702;8.884;2023-06-22T07:25:19;25.40;99.90
74822;DHT22;63353;48.702;8.884;2023-06-22T07:27:46;25.50;99.90
74822;DHT22;63353;48.702;8.884;2023-06-22T07:30:24;25.60;99.90
74822;DHT22;63353;48.702;8.884;2023-06-22T07:32:50;25.70;99.90
74822;DHT22;63353;48.702;8.884;2023-06-22T07:35:15;25.90;99.90
74822;DHT22;63353;48.702;8.884;2023-06-22T07:37:45;26.00;99.90
74822;DHT22;63353;48.702;8.884;2023-06-22T07:40:17;25.90;99.90
74822;DHT22;63353;48.702;8.884;2023-06-22T07:42:42;26.10;99.90
74822;DHT22;63353;48.702;8.884;2023-06-22T07:45:12;26.10;99.90
74822;DHT22;63353;48.702;8.884;2023-06-22T07:47:44;26.30;99.90
74822;DHT22;63353;48.702;8.884;2023-06-22T07:50:10;26.40;99.90
74822;DHT22;63353;48.702;8.884;2023-06-22T07:52:38;26.40;99.90
74822;DHT22;63353;48.702;8.884;2023-06-22T07:55:07;26.60;99.90
74822;DHT22;63353;48.702;8.884;2023-06-22T07:57:33;26.80;99.90
74822;DHT22;63353;48.702;8.884;2023-06-22T08:00:01;26.90;99.90
74822;DHT22;63353;48.702;8.884;2023-06-22T08:02:39;27.00;99.90
74822;DHT22;63353;48.702;8.884;2023-06-22T08:05:09;27.30;99.90
74822;DHT22;63353;48.702;8.884;2023-06-22T08:07:36;27.60;99.90
74822;DHT22;63353;48.702;8.884;2023-06-22T08:10:06;27.70;99.90
74822;DHT22;63353;48.702;8.884;2023-06-22T08:12:38;27.70;99.90
74822;DHT22;63353;48.702;8.884;2023-06-22T08:15:04;27.50;99.90
74822;DHT22;63353;48.702;8.884;2023-06-22T08:17:33;27.40;99.90
74822;DHT22;63353;48.702;8.884;2023-06-22T08:19:59;27.20;99.90
74822;DHT22;63353;48.702;8.884;2023-06-22T08:22:25;26.80;99.90
74822;DHT22;63353;48.702;8.884;2023-06-22T08:24:50;26.60;99.90
74822;DHT22;63353;48.702;8.884;2023-06-22T08:27:16;26.50;99.90
74822;DHT22;63353;48.702;8.884;2023-06-22T08:29:44;26.30;99.90
74822;DHT22;63353;48.702;8.884;2023-06-22T08:32:11;26.30;99.90
74822;DHT22;63353;48.702;8.884;2023-06-22T08:34:37;26.40;99.90
74822;DHT22;63353;48.702;8.884;2023-06-22T08:37:10;26.70;99.90
74822;DHT22;63353;48.702;8.884;2023-06-22T08:39:36;26.90;99.90
74822;DHT22;63353;48.702;8.884;2023-06-22T08:42:02;26.90;99.90
74822;DHT22;63353;48.702;8.884;2023-06-22T08:44:28;27.10;99.90
74822;DHT22;63353;48.702;8.884;2023-06-22T08:46:53;27.30;99.90
74822;DHT22;63353;48.702;8.884;2023-06-22T08:49:19;27.60;99.90
74822;DHT22;63353;48.702;8.884;2023-06-22T08:51:45;27.70;99.90
74822;DHT22;63353;48.702;8.884;2023-06-22T08:54:13;27.40;99.90
74822;DHT22;63353;48.702;8.884;2023-06-22T08:56:39;27.50;99.90
74822;DHT22;63353;48.702;8.884;2023-06-22T08:59:04;27.30;99.90
74822;DHT22;63353;48.702;8.884;2023-06-22T09:01:33;27.30;99.90
74822;DHT22;63353;48.702;8.884;2023-06-22T09:03:58;26.90;99.90
74822;DHT22;63353;48.702;8.884;2023-06-22T09:06:25;26.80;99.90
74822;DHT22;63353;48.702;8.884;2023-06-22T09:08:51;27.30;99.90
74822;DHT22;63353;48.702;8.884;2023-06-22T09:11:17;27.70;99.90
74822;DHT22;63353;48.702;8.884;2023-06-22T09:13:45;27.90;99.90
74822;DHT22;63353;48.702;8.884;2023-06-22T09:16:11;28.20;99.90
74822;DHT22;63353;48.702;8.884;2023-06-22T09:18:37;28.90;99.90
74822;DHT22;63353;48.702;8.884;2023-06-22T09:21:03;29.50;99.90
74822;DHT22;63353;48.702;8.884;2023-06-22T09:23:29;30.00;99.90
74822;DHT22;63353;48.702;8.884;2023-06-22T09:25:54;30.10;99.90
74822;DHT22;63353;48.702;8.884;2023-06-22T09:28:20;30.40;99.90
74822;DHT22;63353;48.702;8.884;2023-06-22T09:30:46;30.70;99.90
74822;DHT22;63353;48.702;8.884;2023-06-22T09:33:11;30.70;99.90
74822;DHT22;63353;48.702;8.884;2023-06-22T09:35:37;30.70;99.90
74822;DHT22;63353;48.702;8.884;2023-06-22T09:38:03;30.90;99.90
74822;DHT22;63353;48.702;8.884;2023-06-22T09:40:28;30.90;99.90
74822;DHT22;63353;48.702;8.884;2023-06-22T09:42:54;31.10;99.90
74822;DHT22;63353;48.702;8.884;2023-06-22T09:45:20;31.20;99.90
74822;DHT22;63353;48.702;8.884;2023-06-22T09:47:45;31.80;99.90
74822;DHT22;63353;48.702;8.884;2023-06-22T09:50:11;31.80;99.90
74822;DHT22;63353;48.702;8.884;2023-06-22T09:52:37;32.10;99.90
74822;DHT22;63353;48.702;8.884;2023-06-22T09:55:06;32.30;99.90
74822;DHT22;63353;48.702;8.884;2023-06-22T09:57:32;32.40;99.90
74822;DHT22;63353;48.702;8.884;2023-06-22T09:59:58;32.20;99.90
74822;DHT22;63353;48.702;8.884;2023-06-22T10:02:23;32.10;99.90
74822;DHT22;63353;48.702;8.884;2023-06-22T10:04:49;32.20;99.90
74822;DHT22;63353;48.702;8.884;2023-06-22T10:07:15;32.50;99.90
74822;DHT22;63353;48.702;8.884;2023-06-22T10:09:40;32.70;99.90
74822;DHT22;63353;48.702;8.884;2023-06-22T10:12:06;32.80;99.90
74822;DHT22;63353;48.702;8.884;2023-06-22T10:14:32;32.90;99.90
74822;DHT22;63353;48.702;8.884;2023-06-22T10:16:58;32.90;99.90
74822;DHT22;63353;48.702;8.884;2023-06-22T10:19:24;33.30;99.90
74822;DHT22;63353;48.702;8.884;2023-06-22T10:21:49;33.70;99.90
74822;DHT22;63353;48.702;8.884;2023-06-22T10:24:15;33.80;99.90
74822;DHT22;63353;48.702;8.884;2023-06-22T10:26:40;33.80;99.90
74822;DHT22;63353;48.702;8.884;2023-06-22T10:29:06;33.70;99.90
74822;DHT22;63353;48.702;8.884;2023-06-22T10:31:32;33.90;99.90
74822;DHT22;63353;48.702;8.884;2023-06-22T10:33:57;33.90;99.90
74822;DHT22;63353;48.702;8.884;2023-06-22T10:36:23;33.90;99.90
74822;DHT22;63353;48.702;8.884;2023-06-22T10:38:49;33.80;99.90
74822;DHT22;63353;48.702;8.884;2023-06-22T10:41:15;33.90;99.90
74822;DHT22;63353;48.702;8.884;2023-06-22T10:43:42;33.90;99.90
74822;DHT22;63353;48.702;8.884;2023-06-22T10:46:07;34.10;99.90
74822;DHT22;63353;48.702;8.884;2023-06-22T10:48:33;34.40;99.90
74822;DHT22;63353;48.702;8.884;2023-06-22T10:50:59;34.60;99.90
74822;DHT22;63353;48.702;8.884;2023-06-22T10:53:25;34.40;99.90
74822;DHT22;63353;48.702;8.884;2023-06-22T10:55:50;34.50;99.90
74822;DHT22;63353;48.702;8.884;2023-06-22T10:58:18;34.80;99.90
74822;DHT22;63353;48.702;8.884;2023-06-22T11:00:44;34.70;99.90
74822;DHT22;63353;48.702;8.884;2023-06-22T11:03:10;34.90;99.90
74822;DHT22;63353;48.702;8.884;2023-06-22T11:05:36;35.00;99.90
74822;DHT22;63353;48.702;8.884;2023-06-22T11:08:01;35.00;99.90
74822;DHT22;63353;48.702;8.884;2023-06-22T11:10:27;35.00;99.90
74822;DHT22;63353;48.702;8.884;2023-06-22T11:13:02;35.00;99.90
74822;DHT22;63353;48.702;8.884;2023-06-22T11:15:29;34.90;99.90
74822;DHT22;63353;48.702;8.884;2023-06-22T11:17:55;35.00;99.90
74822;DHT22;63353;48.702;8.884;2023-06-22T11:20:20;34.70;99.90
74822;DHT22;63353;48.702;8.884;2023-06-22T11:22:46;34.50;99.90
74822;DHT22;63353;48.702;8.884;2023-06-22T11:25:12;34.50;99.90
74822;DHT22;63353;48.702;8.884;2023-06-22T11:27:38;34.30;99.90
74822;DHT22;63353;48.702;8.884;2023-06-22T11:30:04;34.50;99.90
74822;DHT22;63353;48.702;8.884;2023-06-22T11:32:30;34.70;99.90
74822;DHT22;63353;48.702;8.884;2023-06-22T11:34:56;34.90;99.90
74822;DHT22;63353;48.702;8.884;2023-06-22T11:37:24;34.90;99.90
74822;DHT22;63353;48.702;8.884;2023-06-22T11:39:50;34.60;99.90
74822;DHT22;63353;48.702;8.884;2023-06-22T11:42:28;34.30;99.90
74822;DHT22;63353;48.702;8.884;2023-06-22T11:44:56;33.90;99.90
74822;DHT22;63353;48.702;8.884;2023-06-22T11:47:22;33.60;99.90
74822;DHT22;63353;48.702;8.884;2023-06-22T11:49:48;33.20;99.90
74822;DHT22;63353;48.702;8.884;2023-06-22T11:52:13;33.00;99.90
74822;DHT22;63353;48.702;8.884;2023-06-22T11:54:39;32.90;99.90
74822;DHT22;63353;48.702;8.884;2023-06-22T11:57:05;32.60;99.90
74822;DHT22;63353;48.702;8.884;2023-06-22T11:59:30;32.40;99.90
74822;DHT22;63353;48.702;8.884;2023-06-22T12:01:57;32.40;99.90
74822;DHT22;63353;48.702;8.884;2023-06-22T12:04:23;32.40;99.90
74822;DHT22;63353;48.702;8.884;2023-06-22T12:06:49;32.30;99.90
74822;DHT22;63353;48.702;8.884;2023-06-22T12:09:15;32.30;99.90
74822;DHT22;63353;48.702;8.884;2023-06-22T12:11:40;32.40;99.90
74822;DHT22;63353;48.702;8.884;2023-06-22T12:14:06;32.40;99.90
74822;DHT22;63353;48.702;8.884;2023-06-22T12:16:32;32.60;99.90
74822;DHT22;63353;48.702;8.884;2023-06-22T12:18:58;32.80;99.90
74822;DHT22;63353;48.702;8.884;2023-06-22T12:21:23;32.90;99.90
74822;DHT22;63353;48.702;8.884;2023-06-22T12:23:49;32.70;99.90
74822;DHT22;63353;48.702;8.884;2023-06-22T12:26:15;32.60;99.90
74822;DHT22;63353;48.702;8.884;2023-06-22T12:28:41;32.50;99.90
74822;DHT22;63353;48.702;8.884;2023-06-22T12:31:06;32.50;99.90
74822;DHT22;63353;48.702;8.884;2023-06-22T12:33:32;32.60;99.90
74822;DHT22;63353;48.702;8.884;2023-06-22T12:35:58;32.60;99.90
74822;DHT22;63353;48.702;8.884;2023-06-22T12:38:23;32.50;99.90
74822;DHT22;63353;48.702;8.884;2023-06-22T12:40:52;32.50;99.90
74822;DHT22;63353;48.702;8.884;2023-06-22T12:43:18;32.40;99.90
74822;DHT22;63353;48.702;8.884;2023-06-22T12:45:44;32.10;99.90
74822;DHT22;63353;48.702;8.884;2023-06-22T12:48:09;31.70;99.90
74822;DHT22;63353;48.702;8.884;2023-06-22T12:50:35;31.40;99.90
74822;DHT22;63353;48.702;8.884;2023-06-22T12:53:01;31.20;99.90
74822;DHT22;63353;48.702;8.884;2023-06-22T12:55:28;31.10;99.90
74822;DHT22;63353;48.702;8.884;2023-06-22T12:57:54;30.90;99.90
74822;DHT22;63353;48.702;8.884;2023-06-22T13:00:19;30.60;99.90
74822;DHT22;63353;48.702;8.884;2023-06-22T13:02:45;30.60;99.90
74822;DHT22;63353;48.702;8.884;2023-06-22T13:05:11;30.50;99.90
74822;DHT22;63353;48.702;8.884;2023-06-22T13:07:36;30.30;99.90
74822;DHT22;63353;48.702;8.884;2023-06-22T13:10:02;30.20;99.90
74822;DHT22;63353;48.702;8.884;2023-06-22T13:12:28;30.10;99.90
74822;DHT22;63353;48.702;8.884;2023-06-22T13:14:54;30.20;99.90
74822;DHT22;63353;48.702;8.884;2023-06-22T13:17:20;30.30;99.90
74822;DHT22;63353;48.702;8.884;2023-06-22T13:19:46;30.30;99.90
74822;DHT22;63353;48.702;8.884;2023-06-22T13:22:26;30.40;99.90
74822;DHT22;63353;48.702;8.884;2023-06-22T13:24:53;30.30;99.90
74822;DHT22;63353;48.702;8.884;2023-06-22T13:27:19;30.70;99.90
74822;DHT22;63353;48.702;8.884;2023-06-22T13:29:44;31.10;99.90
74822;DHT22;63353;48.702;8.884;2023-06-22T13:32:10;31.30;99.90
74822;DHT22;63353;48.702;8.884;2023-06-22T13:34:35;31.50;99.90
74822;DHT22;63353;48.702;8.884;2023-06-22T13:37:01;31.80;99.90
74822;DHT22;63353;48.702;8.884;2023-06-22T13:39:27;31.80;99.90
74822;DHT22;63353;48.702;8.884;2023-06-22T13:41:52;31.60;99.90
74822;DHT22;63353;48.702;8.884;2023-06-22T13:44:18;31.50;99.90
74822;DHT22;63353;48.702;8.884;2023-06-22T13:46:43;31.30;99.90
74822;DHT22;63353;48.702;8.884;2023-06-22T13:49:09;31.00;99.90
74822;DHT22;63353;48.702;8.884;2023-06-22T13:51:36;30.70;99.90
74822;DHT22;63353;48.702;8.884;2023-06-22T13:54:01;30.70;99.90
74822;DHT22;63353;48.702;8.884;2023-06-22T13:56:27;30.90;99.90
74822;DHT22;63353;48.702;8.884;2023-06-22T13:58:53;30.80;99.90
74822;DHT22;63353;48.702;8.884;2023-06-22T14:01:18;30.90;99.90
74822;DHT22;63353;48.702;8.884;2023-06-22T14:03:44;30.90;99.90
74822;DHT22;63353;48.702;8.884;2023-06-22T14:06:12;31.10;99.90
74822;DHT22;63353;48.702;8.884;2023-06-22T14:08:38;31.60;99.90
74822;DHT22;63353;48.702;8.884;2023-06-22T14:11:03;32.20;99.90
74822;DHT22;63353;48.702;8.884;2023-06-22T14:13:29;32.00;99.90
74822;DHT22;63353;48.702;8.884;2023-06-22T14:15:55;32.10;99.90
74822;DHT22;63353;48.702;8.884;2023-06-22T14:18:21;32.50;99.90
74822;DHT22;63353;48.702;8.884;2023-06-22T14:20:48;33.10;99.90
74822;DHT22;63353;48.702;8.884;2023-06-22T14:23:14;33.90;99.00
74822;DHT22;63353;48.702;8.884;2023-06-22T14:25:40;34.10;97.10
74822;DHT22;63353;48.702;8.884;2023-06-22T14:28:06;34.10;95.30
74822;DHT22;63353;48.702;8.884;2023-06-22T14:30:32;33.60;94.00
74822;DHT22;63353;48.702;8.884;2023-06-22T14:32:57;33.50;93.60
74822;DHT22;63353;48.702;8.884;2023-06-22T14:35:23;33.20;93.10
74822;DHT22;63353;48.702;8.884;2023-06-22T14:37:50;32.80;92.10
74822;DHT22;63353;48.702;8.884;2023-06-22T14:40:16;32.20;92.40
74822;DHT22;63353;48.702;8.884;2023-06-22T14:42:41;32.50;93.40
74822;DHT22;63353;48.702;8.884;2023-06-22T14:45:07;33.10;92.40
74822;DHT22;63353;48.702;8.884;2023-06-22T14:47:33;34.10;91.30
74822;DHT22;63353;48.702;8.884;2023-06-22T14:49:58;34.80;89.20
74822;DHT22;63353;48.702;8.884;2023-06-22T14:52:26;34.60;86.50
74822;DHT22;63353;48.702;8.884;2023-06-22T14:54:52;33.20;86.00
74822;DHT22;63353;48.702;8.884;2023-06-22T14:57:18;33.20;87.00
74822;DHT22;63353;48.702;8.884;2023-06-22T14:59:46;33.90;86.20
74822;DHT22;63353;48.702;8.884;2023-06-22T15:02:12;34.10;85.80
74822;DHT22;63353;48.702;8.884;2023-06-22T15:04:38;33.60;85.10
74822;DHT22;63353;48.702;8.884;2023-06-22T15:07:04;33.80;86.00
74822;DHT22;63353;48.702;8.884;2023-06-22T15:09:29;34.40;85.30
74822;DHT22;63353;48.702;8.884;2023-06-22T15:11:55;34.80;82.90
74822;DHT22;63353;48.702;8.884;2023-06-22T15:14:21;34.50;83.90
74822;DHT22;63353;48.702;8.884;2023-06-22T15:16:47;34.40;82.80
74822;DHT22;63353;48.702;8.884;2023-06-22T15:19:12;34.40;83.30
74822;DHT22;63353;48.702;8.884;2023-06-22T15:21:38;34.50;82.00
74822;DHT22;63353;48.702;8.884;2023-06-22T15:24:04;33.80;83.10
74822;DHT22;63353;48.702;8.884;2023-06-22T15:26:30;32.40;84.70
74822;DHT22;63353;48.702;8.884;2023-06-22T15:28:55;31.60;88.00
74822;DHT22;63353;48.702;8.884;2023-06-22T15:31:21;31.20;88.70
74822;DHT22;63353;48.702;8.884;2023-06-22T15:33:47;30.80;89.70
74822;DHT22;63353;48.702;8.884;2023-06-22T15:36:13;30.70;90.80